createdAt,value
2018-05-08T00:00:20.654Z,51.67
2018-05-08T00:01:20.685Z,51.31
2018-05-08T00:02:20.706Z,51.21
2018-05-08T00:03:20.685Z,51.40
2018-05-08T00:04:20.737Z,51.50
2018-05-08T00:05:20.723Z,50.92
2018-05-08T00:06:20.777Z,51.31
2018-05-08T00:07:20.740Z,50.92
2018-05-08T00:08:20.792Z,51.21
2018-05-08T00:09:20.762Z,51.21
2018-05-08T00:10:20.776Z,51.31
2018-05-08T00:11:20.832Z,51.50
2018-05-08T00:12:20.818Z,51.50
2018-05-08T00:13:20.809Z,51.28
2018-05-08T00:14:20.840Z,51.95
2018-05-08T00:15:20.837Z,51.47
2018-05-08T00:16:20.887Z,51.76
2018-05-08T00:17:20.860Z,51.57
2018-05-08T00:18:20.923Z,52.34
2018-05-08T00:19:20.902Z,52.14
2018-05-08T00:20:20.911Z,51.67
2018-05-08T00:21:20.910Z,51.76
2018-05-08T00:22:20.918Z,51.95
2018-05-08T00:23:21.014Z,51.67
2018-05-08T00:24:20.953Z,52.14
2018-05-08T00:25:20.975Z,51.47
2018-05-08T00:26:20.970Z,51.67
2018-05-08T00:27:20.992Z,51.47
2018-05-08T00:28:21.037Z,51.95
2018-05-08T00:29:21.877Z,52.53
2018-05-08T00:30:21.031Z,52.72
2018-05-08T00:31:21.050Z,52.53
2018-05-08T00:32:21.059Z,52.53
2018-05-08T00:33:21.091Z,52.62
2018-05-08T00:34:21.094Z,52.72
2018-05-08T00:35:21.079Z,52.43
2018-05-08T00:36:21.101Z,52.43
2018-05-08T00:37:21.113Z,52.43
2018-05-08T00:38:21.931Z,52.72
2018-05-08T00:39:21.132Z,52.43
2018-05-08T00:40:21.157Z,52.43
2018-05-08T00:41:21.168Z,52.43
2018-05-08T00:42:21.181Z,52.62
2018-05-08T00:43:21.195Z,52.98
2018-05-08T00:44:21.220Z,52.12
2018-05-08T00:45:21.267Z,52.40
2018-05-08T00:46:21.221Z,52.72
2018-05-08T00:55:58.295Z,52.53
2018-05-08T00:56:58.310Z,52.50
2018-05-08T00:57:58.277Z,52.62
2018-05-08T00:58:58.293Z,52.50
2018-05-08T00:59:58.300Z,52.40
2018-05-08T01:00:58.387Z,52.69
2018-05-08T01:01:58.314Z,52.40
2018-05-08T01:02:58.381Z,52.69
2018-05-08T01:03:58.344Z,52.40
2018-05-08T01:04:58.361Z,52.40
2018-05-08T01:05:58.410Z,52.40
2018-05-08T01:06:58.436Z,52.60
2018-05-08T01:07:58.396Z,52.69
2018-05-08T01:08:58.394Z,52.40
2018-05-08T01:09:58.439Z,52.50
2018-05-08T01:10:58.488Z,52.79
2018-05-08T01:11:58.457Z,52.31
2018-05-08T01:12:58.465Z,52.50
2018-05-08T01:13:58.460Z,52.60
2018-05-08T01:14:58.473Z,52.69
2018-05-08T01:15:58.536Z,52.31
2018-05-08T01:16:58.566Z,52.60
2018-05-08T01:17:58.542Z,52.79
2018-05-08T01:18:58.535Z,52.69
2018-05-08T01:19:58.531Z,52.50
2018-05-08T01:20:58.579Z,52.50
2018-05-08T01:21:58.622Z,52.60
2018-05-08T01:22:58.574Z,52.79
2018-05-08T01:23:58.597Z,52.79
2018-05-08T01:24:58.725Z,52.40
2018-05-08T01:25:58.618Z,52.60
2018-05-08T01:26:58.661Z,52.60
2018-05-08T01:27:58.665Z,52.31
2018-05-08T01:28:58.665Z,52.60
2018-05-08T01:29:59.914Z,52.60
2018-05-08T01:30:58.810Z,52.22
2018-05-08T01:31:58.719Z,52.60
2018-05-08T01:32:58.832Z,52.31
2018-05-08T01:33:58.722Z,52.60
2018-05-08T01:34:58.722Z,52.79
2018-05-08T01:35:58.808Z,52.60
2018-05-08T01:36:58.740Z,52.67
2018-05-08T01:37:58.747Z,52.38
2018-05-08T01:38:58.804Z,52.79
2018-05-08T01:39:58.809Z,52.60
2018-05-08T01:40:59.482Z,52.69
2018-05-08T01:41:58.815Z,52.60
2018-05-08T01:42:58.868Z,52.76
2018-05-08T01:43:58.885Z,52.69
2018-05-08T01:44:58.886Z,52.89
2018-05-08T01:45:58.854Z,52.79
2018-05-08T01:46:58.857Z,52.76
2018-05-08T01:47:58.862Z,52.38
2018-05-08T01:48:58.907Z,52.69
2018-05-08T01:49:58.924Z,52.57
2018-05-08T01:50:58.926Z,52.57
2018-05-08T01:51:58.937Z,53.05
2018-05-08T01:52:58.939Z,52.38
2018-05-08T01:53:58.939Z,52.67
2018-05-08T01:54:59.002Z,52.38
2018-05-08T01:55:58.971Z,52.67
2018-05-08T01:56:58.980Z,52.86
2018-05-08T01:57:59.032Z,52.86
2018-05-08T01:58:59.004Z,52.95
2018-05-08T01:59:59.023Z,52.76
2018-05-08T02:00:59.043Z,53.63
2018-05-08T02:01:59.067Z,53.05
2018-05-08T02:02:59.093Z,53.15
2018-05-08T02:03:59.135Z,52.95
2018-05-08T02:05:00.135Z,53.05
2018-05-08T02:05:59.101Z,53.05
2018-05-08T02:06:59.090Z,53.34
2018-05-08T02:07:59.111Z,53.24
2018-05-08T02:08:59.207Z,53.53
2018-05-08T02:09:59.183Z,53.63
2018-05-08T02:10:59.133Z,53.63
2018-05-08T02:11:59.183Z,53.63
2018-05-08T02:12:59.201Z,53.82
2018-05-08T02:13:59.196Z,53.72
2018-05-08T02:14:59.232Z,54.30
2018-05-08T02:15:59.222Z,54.30
2018-05-08T02:16:59.231Z,54.01
2018-05-08T02:17:59.231Z,53.15
2018-05-08T02:18:59.240Z,53.63
2018-05-08T02:19:59.292Z,53.34
2018-05-08T02:20:59.272Z,53.72
2018-05-08T02:21:59.283Z,53.15
2018-05-08T02:22:59.299Z,54.27
2018-05-08T02:23:59.317Z,54.17
2018-05-08T02:24:59.361Z,54.30
2018-05-08T02:25:59.390Z,53.99
2018-05-08T02:26:59.330Z,54.66
2018-05-08T02:27:59.369Z,53.91
2018-05-08T02:28:59.358Z,54.11
2018-05-08T02:29:59.369Z,54.56
2018-05-08T02:30:59.419Z,54.49
2018-05-08T02:31:59.402Z,54.75
2018-05-08T02:32:59.418Z,54.08
2018-05-08T02:33:59.417Z,54.58
2018-05-08T02:34:59.445Z,54.94
2018-05-08T02:35:59.485Z,54.85
2018-05-08T02:36:59.458Z,54.46
2018-05-08T02:37:59.513Z,54.85
2018-05-08T02:38:59.519Z,54.46
2018-05-08T02:39:59.536Z,54.85
2018-05-08T02:40:59.502Z,54.75
2018-05-08T02:41:59.508Z,55.13
2018-05-08T02:42:59.525Z,54.56
2018-05-08T02:43:59.528Z,54.85
2018-05-08T02:44:59.616Z,55.13
2018-05-08T02:45:59.568Z,55.23
2018-05-08T02:46:59.577Z,54.94
2018-05-08T02:47:59.597Z,55.42
2018-05-08T02:48:59.584Z,56.00
2018-05-08T02:49:59.619Z,55.97
2018-05-08T02:50:59.668Z,56.16
2018-05-08T02:51:59.650Z,55.97
2018-05-08T02:52:59.655Z,55.78
2018-05-08T02:53:59.661Z,55.87
2018-05-08T02:54:59.660Z,55.87
2018-05-08T02:55:59.711Z,56.16
2018-05-08T02:56:59.703Z,55.97
2018-05-08T02:57:59.699Z,56.00
2018-05-08T02:58:59.738Z,55.30
2018-05-08T02:59:59.719Z,56.09
2018-05-08T03:00:59.769Z,55.23
2018-05-08T03:01:59.769Z,56.07
2018-05-08T03:02:59.787Z,55.78
2018-05-08T03:03:59.767Z,55.78
2018-05-08T03:04:59.777Z,55.87
2018-05-08T03:05:59.803Z,55.90
2018-05-08T03:06:59.831Z,55.78
2018-05-08T03:07:59.826Z,55.97
2018-05-08T03:08:59.824Z,55.58
2018-05-08T03:09:59.868Z,56.26
2018-05-08T03:10:59.858Z,56.54
2018-05-08T03:11:59.873Z,56.16
2018-05-08T03:12:59.911Z,56.26
2018-05-08T03:13:59.881Z,56.07
2018-05-08T03:14:59.888Z,56.45
2018-05-08T03:15:59.936Z,56.26
2018-05-08T03:16:59.909Z,55.58
2018-05-08T03:17:59.931Z,55.78
2018-05-08T03:18:59.960Z,55.58
2018-05-08T03:19:59.984Z,56.45
2018-05-08T03:20:59.952Z,56.54
2018-05-08T03:21:59.969Z,55.97
2018-05-08T03:23:00.009Z,56.16
2018-05-08T03:24:00.006Z,56.16
2018-05-08T03:25:00.043Z,56.35
2018-05-08T03:26:00.018Z,56.35
2018-05-08T03:27:00.031Z,56.26
2018-05-08T03:28:00.042Z,56.26
2018-05-08T03:29:00.056Z,56.16
2018-05-08T03:30:00.081Z,56.45
2018-05-08T03:31:00.091Z,56.64
2018-05-08T03:32:00.077Z,55.78
2018-05-08T03:33:00.119Z,56.45
2018-05-08T03:34:00.124Z,56.74
2018-05-08T03:35:00.111Z,56.54
2018-05-08T03:36:00.260Z,56.54
2018-05-08T03:37:00.151Z,56.54
2018-05-08T03:38:00.174Z,56.16
2018-05-08T03:39:00.170Z,56.45
2018-05-08T03:40:00.172Z,55.97
2018-05-08T03:41:00.195Z,56.45
2018-05-08T03:42:00.237Z,56.26
2018-05-08T03:43:00.205Z,56.07
2018-05-08T03:44:00.215Z,56.64
2018-05-08T03:45:00.218Z,56.45
2018-05-08T03:46:00.262Z,56.35
2018-05-08T03:47:00.272Z,56.26
2018-05-08T03:48:00.281Z,56.54
2018-05-08T03:49:00.283Z,56.54
2018-05-08T03:50:00.323Z,56.64
2018-05-08T03:51:00.298Z,56.93
2018-05-08T03:52:00.332Z,56.54
2018-05-08T03:53:00.350Z,56.83
2018-05-08T03:54:00.331Z,56.54
2018-05-08T03:55:00.385Z,56.54
2018-05-08T03:56:00.345Z,56.93
2018-05-08T03:57:00.356Z,56.35
2018-05-08T03:58:00.368Z,55.87
2018-05-08T03:59:00.384Z,56.07
2018-05-08T04:00:00.469Z,56.96
2018-05-08T04:01:00.436Z,56.09
2018-05-08T04:02:00.429Z,56.57
2018-05-08T04:03:00.434Z,56.86
2018-05-08T04:04:00.449Z,55.90
2018-05-08T04:05:00.456Z,56.76
2018-05-08T04:06:00.512Z,56.19
2018-05-08T04:07:00.500Z,56.00
2018-05-08T04:08:00.526Z,56.38
2018-05-08T04:09:00.492Z,56.00
2018-05-08T04:10:00.520Z,55.90
2018-05-08T04:11:00.544Z,55.62
2018-05-08T04:12:00.543Z,55.74
2018-05-08T04:13:00.603Z,56.19
2018-05-08T04:14:00.598Z,55.83
2018-05-08T04:15:00.577Z,56.02
2018-05-08T04:16:00.583Z,55.55
2018-05-08T04:17:00.591Z,55.64
2018-05-08T04:18:00.651Z,55.45
2018-05-08T04:19:00.619Z,54.97
2018-05-08T04:20:00.667Z,54.97
2018-05-08T04:21:00.694Z,54.68
2018-05-08T04:22:00.676Z,55.35
2018-05-08T04:23:00.676Z,54.58
2018-05-08T04:24:00.685Z,54.97
2018-05-08T04:25:00.693Z,54.78
2018-05-08T04:26:00.702Z,54.88
2018-05-08T04:27:00.744Z,54.88
2018-05-08T04:28:00.743Z,54.97
2018-05-08T04:29:00.728Z,54.13
2018-05-08T04:30:00.741Z,54.61
2018-05-08T04:31:00.774Z,54.71
2018-05-08T04:32:00.825Z,53.85
2018-05-08T04:33:00.806Z,54.13
2018-05-08T04:34:00.823Z,53.94
2018-05-08T04:35:00.812Z,53.94
2018-05-08T04:36:00.853Z,53.58
2018-05-08T04:37:00.825Z,52.81
2018-05-08T04:38:00.846Z,53.49
2018-05-08T04:39:00.907Z,53.01
2018-05-08T04:40:00.907Z,52.62
2018-05-08T04:41:00.892Z,52.65
2018-05-08T04:42:00.895Z,51.88
2018-05-08T04:43:00.912Z,50.85
2018-05-08T04:44:00.959Z,50.56
2018-05-08T04:45:00.950Z,50.08
2018-05-08T04:46:00.975Z,50.01
2018-05-08T04:47:00.977Z,49.63
2018-05-08T04:48:01.005Z,49.84
2018-05-08T04:49:00.989Z,48.79
2018-05-08T04:50:00.992Z,48.69
2018-05-08T04:51:01.041Z,48.52
2018-05-08T04:52:01.009Z,47.58
2018-05-08T04:53:01.077Z,47.00
2018-05-08T04:54:01.045Z,46.14
2018-05-08T04:55:01.096Z,45.87
2018-05-08T04:56:01.065Z,45.29
2018-05-08T04:57:01.116Z,45.48
2018-05-08T04:58:01.106Z,45.29
2018-05-08T04:59:01.125Z,45.03
2018-05-08T05:00:01.151Z,44.06
2018-05-08T05:01:01.136Z,43.79
2018-05-08T05:02:01.169Z,43.52
2018-05-08T05:03:01.213Z,42.58
2018-05-08T05:04:01.171Z,41.61
2018-05-08T05:05:01.200Z,40.86
2018-05-08T05:06:01.206Z,41.08
2018-05-08T05:07:01.303Z,40.32
2018-05-08T05:08:01.286Z,39.09
2018-05-08T05:09:01.256Z,38.81
2018-05-08T05:10:01.264Z,37.87
2018-05-08T05:11:01.369Z,36.72
2018-05-08T05:12:01.294Z,35.28
2018-05-08T05:13:01.332Z,35.28
2018-05-08T05:14:01.375Z,34.33
2018-05-08T05:15:01.348Z,33.76
2018-05-08T05:16:01.366Z,33.67
2018-05-08T05:17:01.362Z,33.69
2018-05-08T05:18:01.400Z,33.69
2018-05-08T05:19:01.483Z,33.29
2018-05-08T05:20:01.441Z,33.20
2018-05-08T05:21:01.428Z,33.11
2018-05-08T05:22:01.446Z,33.39
2018-05-08T05:23:01.533Z,32.82
2018-05-08T05:24:01.547Z,31.77
2018-05-08T05:25:01.495Z,31.58
2018-05-08T05:26:01.549Z,31.21
2018-05-08T05:27:01.524Z,30.93
2018-05-08T05:28:01.568Z,29.99
2018-05-08T05:29:01.568Z,29.11
2018-05-08T05:30:01.597Z,28.15
2018-05-08T05:31:01.641Z,28.75
2018-05-08T05:32:01.641Z,28.16
2018-05-08T05:33:01.660Z,27.98
2018-05-08T05:34:01.689Z,27.22
2018-05-08T05:35:01.680Z,26.82
2018-05-08T05:36:01.678Z,26.54
2018-05-08T05:37:01.748Z,26.56
2018-05-08T05:38:01.722Z,25.59
2018-05-08T05:39:01.777Z,25.61
2018-05-08T05:40:01.759Z,24.80
2018-05-08T05:41:01.847Z,25.39
2018-05-08T05:42:01.781Z,25.29
2018-05-08T05:43:01.869Z,25.78
2018-05-08T05:44:01.848Z,25.96
2018-05-08T05:45:01.849Z,26.03
2018-05-08T05:46:01.862Z,27.09
2018-05-08T05:47:01.875Z,28.14
2018-05-08T05:48:01.924Z,28.80
2018-05-08T05:49:01.944Z,29.66
2018-05-08T05:50:01.926Z,29.94
2018-05-08T05:51:01.986Z,30.51
2018-05-08T05:52:01.965Z,31.18
2018-05-08T05:53:01.977Z,31.84
2018-05-08T05:54:02.006Z,32.52
2018-05-08T05:55:02.018Z,32.81
2018-05-08T05:56:02.061Z,33.17
2018-05-08T05:57:02.043Z,33.75
2018-05-08T05:58:02.097Z,34.22
2018-05-08T05:59:02.087Z,34.41
2018-05-08T06:00:02.180Z,35.17
2018-05-08T06:01:02.159Z,35.66
2018-05-08T06:02:02.170Z,35.73
2018-05-08T06:03:02.155Z,36.60
2018-05-08T06:04:02.171Z,37.26
2018-05-08T06:05:02.184Z,36.88
2018-05-08T06:06:02.242Z,37.44
2018-05-08T06:07:02.270Z,38.60
2018-05-08T06:08:02.249Z,38.87
2018-05-08T06:09:03.228Z,38.87
2018-05-08T06:10:02.264Z,38.95
2018-05-08T06:11:02.266Z,39.34
2018-05-08T06:12:02.362Z,40.28
2018-05-08T06:13:02.301Z,40.67
2018-05-08T06:14:02.337Z,40.94
2018-05-08T06:15:02.348Z,41.03
2018-05-08T06:16:02.366Z,41.42
2018-05-08T06:17:02.407Z,40.84
2018-05-08T06:18:02.396Z,41.52
2018-05-08T06:19:02.409Z,41.81
2018-05-08T06:20:02.449Z,41.98
2018-05-08T06:21:02.431Z,42.46
2018-05-08T06:22:02.445Z,42.56
2018-05-08T06:23:02.491Z,42.46
2018-05-08T06:24:02.463Z,42.56
2018-05-08T06:25:02.497Z,43.33
2018-05-08T06:26:02.492Z,43.52
2018-05-08T06:27:02.553Z,43.33
2018-05-08T06:28:02.529Z,43.24
2018-05-08T06:29:02.555Z,43.50
2018-05-08T06:30:02.551Z,43.79
2018-05-08T06:31:02.561Z,43.89
2018-05-08T06:32:02.630Z,44.27
2018-05-08T06:33:02.634Z,43.98
2018-05-08T06:34:02.623Z,43.79
2018-05-08T06:35:02.671Z,43.62
2018-05-08T06:36:02.648Z,44.10
2018-05-08T06:37:02.667Z,44.20
2018-05-08T06:38:02.670Z,44.46
2018-05-08T06:39:02.695Z,44.27
2018-05-08T06:40:02.804Z,44.18
2018-05-08T06:41:02.704Z,44.27
2018-05-08T06:42:02.731Z,44.76
2018-05-08T06:43:02.746Z,44.85
2018-05-08T06:44:02.769Z,44.83
2018-05-08T06:45:02.820Z,45.21
2018-05-08T06:46:02.784Z,45.03
2018-05-08T06:47:02.793Z,45.31
2018-05-08T06:48:02.821Z,45.70
2018-05-08T06:49:02.852Z,45.97
2018-05-08T06:50:02.894Z,46.35
2018-05-08T06:51:02.925Z,45.48
2018-05-08T06:52:02.869Z,46.15
2018-05-08T06:53:02.886Z,45.77
2018-05-08T06:54:02.895Z,46.15
2018-05-08T06:55:02.930Z,46.35
2018-05-08T06:56:02.956Z,46.35
2018-05-08T06:57:02.943Z,46.15
2018-05-08T06:58:02.949Z,46.06
2018-05-08T06:59:03.061Z,46.06
2018-05-08T07:00:02.971Z,46.52
2018-05-08T07:01:03.056Z,46.62
2018-05-08T07:02:02.997Z,46.71
2018-05-08T07:03:03.107Z,46.91
2018-05-08T07:04:03.031Z,46.52
2018-05-08T07:05:03.043Z,47.00
2018-05-08T07:06:03.105Z,46.93
2018-05-08T07:07:03.110Z,46.71
2018-05-08T07:08:03.117Z,47.39
2018-05-08T07:09:03.183Z,47.77
2018-05-08T07:10:03.126Z,47.58
2018-05-08T07:11:03.145Z,47.70
2018-05-08T07:12:03.155Z,47.58
2018-05-08T07:13:03.227Z,47.51
2018-05-08T07:14:03.171Z,47.67
2018-05-08T07:15:03.193Z,47.80
2018-05-08T07:16:03.378Z,47.41
2018-05-08T07:17:03.226Z,47.80
2018-05-08T07:18:03.256Z,47.70
2018-05-08T07:19:03.256Z,46.93
2018-05-08T07:20:03.249Z,47.12
2018-05-08T07:21:03.353Z,47.22
2018-05-08T07:22:03.276Z,47.00
2018-05-08T07:23:03.296Z,47.60
2018-05-08T07:24:03.419Z,47.22
2018-05-08T07:25:03.340Z,47.31
2018-05-08T07:26:03.349Z,47.51
2018-05-08T07:27:03.358Z,47.41
2018-05-08T07:28:03.369Z,46.73
2018-05-08T07:29:03.413Z,46.45
2018-05-08T07:30:03.439Z,47.31
2018-05-08T07:31:03.404Z,46.25
2018-05-08T07:32:03.433Z,46.45
2018-05-08T07:33:03.495Z,46.15
2018-05-08T07:34:03.448Z,46.06
2018-05-08T07:35:03.471Z,46.25
2018-05-08T07:36:03.483Z,45.68
2018-05-08T07:37:03.498Z,46.55
2018-05-08T07:38:03.606Z,46.25
2018-05-08T07:39:03.510Z,46.06
2018-05-08T07:40:03.685Z,46.45
2018-05-08T07:41:03.589Z,46.35
2018-05-08T07:42:03.566Z,46.15
2018-05-08T07:43:03.568Z,46.35
2018-05-08T07:44:03.578Z,45.97
2018-05-08T07:45:03.724Z,45.87
2018-05-08T07:46:03.644Z,45.58
2018-05-08T07:47:03.627Z,45.77
2018-05-08T07:48:03.657Z,46.25
2018-05-08T07:49:03.758Z,46.23
2018-05-08T07:50:03.674Z,46.55
2018-05-08T07:51:03.728Z,46.06
2018-05-08T07:52:03.700Z,46.25
2018-05-08T07:53:03.745Z,46.06
2018-05-08T07:54:03.759Z,46.25
2018-05-08T07:55:03.748Z,46.06
2018-05-08T07:56:03.769Z,45.87
2018-05-08T07:57:03.775Z,45.70
2018-05-08T07:58:03.782Z,46.37
2018-05-08T07:59:03.832Z,45.99
2018-05-08T08:00:03.820Z,45.79
2018-05-08T08:01:03.826Z,45.03
2018-05-08T08:02:03.850Z,45.31
2018-05-08T08:03:03.861Z,45.51
2018-05-08T08:04:03.908Z,45.21
2018-05-08T08:05:03.876Z,44.83
2018-05-08T08:06:03.919Z,45.21
2018-05-08T08:07:03.894Z,45.12
2018-05-08T08:08:03.958Z,44.73
2018-05-08T08:09:03.940Z,43.87
2018-05-08T08:10:03.957Z,43.67
2018-05-08T08:11:04.016Z,43.96
2018-05-08T08:12:03.981Z,43.96
2018-05-08T08:13:03.989Z,44.54
2018-05-08T08:14:04.036Z,44.93
2018-05-08T08:15:04.010Z,45.14
2018-05-08T08:16:04.123Z,45.53
2018-05-08T08:17:04.060Z,44.93
2018-05-08T08:18:04.071Z,45.21
2018-05-08T08:19:04.084Z,44.93
2018-05-08T08:20:04.094Z,44.25
2018-05-08T08:21:04.161Z,44.15
2018-05-08T08:22:04.208Z,44.25
2018-05-08T08:23:04.146Z,44.85
2018-05-08T08:24:04.139Z,44.83
2018-05-08T08:25:04.175Z,45.03
2018-05-08T08:26:04.201Z,45.43
2018-05-08T08:27:04.212Z,45.24
2018-05-08T08:28:04.245Z,43.98
2018-05-08T08:29:04.227Z,43.58
2018-05-08T08:30:04.239Z,42.35
2018-05-08T08:31:04.256Z,42.35
2018-05-08T08:32:04.307Z,43.41
2018-05-08T08:33:04.283Z,43.12
2018-05-08T08:34:04.282Z,43.21
2018-05-08T08:35:04.289Z,43.70
2018-05-08T08:36:04.329Z,42.44
2018-05-08T08:37:04.363Z,42.15
2018-05-08T08:38:04.335Z,42.54
2018-05-08T08:39:04.348Z,42.54
2018-05-08T08:40:04.429Z,43.31
2018-05-08T08:41:04.389Z,43.50
2018-05-08T08:42:04.385Z,43.21
2018-05-08T08:43:04.447Z,44.27
2018-05-08T08:44:04.423Z,43.98
2018-05-08T08:45:04.469Z,44.39
2018-05-08T08:46:04.450Z,43.41
2018-05-08T08:47:04.479Z,42.93
2018-05-08T08:48:04.543Z,43.31
2018-05-08T08:49:04.487Z,42.75
2018-05-08T08:50:04.507Z,41.98
2018-05-08T08:51:04.541Z,42.18
2018-05-08T08:52:04.578Z,42.18
2018-05-08T08:53:04.546Z,41.50
2018-05-08T08:54:04.571Z,40.82
2018-05-08T08:55:04.617Z,39.47
2018-05-08T08:56:04.633Z,41.02
2018-05-08T08:57:04.611Z,39.86
2018-05-08T08:58:04.625Z,38.70
2018-05-08T08:59:04.701Z,36.87
2018-05-08T09:00:04.653Z,35.80
2018-05-08T09:01:04.674Z,35.80
2018-05-08T09:02:04.695Z,36.00
2018-05-08T09:03:04.699Z,36.38
2018-05-08T09:04:04.815Z,36.00
2018-05-08T09:05:04.735Z,38.21
2018-05-08T09:06:04.767Z,38.99
2018-05-08T09:07:04.747Z,37.54
2018-05-08T09:08:04.819Z,36.67
2018-05-08T09:09:04.798Z,36.57
2018-05-08T09:10:04.836Z,37.06
2018-05-08T09:11:04.824Z,37.06
2018-05-08T09:12:04.833Z,37.15
2018-05-08T09:13:04.899Z,35.90
2018-05-08T09:14:04.853Z,37.06
2018-05-08T09:15:04.873Z,34.36
2018-05-08T09:16:04.890Z,34.64
2018-05-08T09:17:04.927Z,33.68
2018-05-08T09:18:04.963Z,34.74
2018-05-08T09:19:04.925Z,35.22
2018-05-08T09:20:04.990Z,34.55
2018-05-08T09:21:04.979Z,34.06
2018-05-08T09:22:04.987Z,34.74
2018-05-08T09:23:04.981Z,35.32
2018-05-08T09:24:05.019Z,35.82
2018-05-08T09:25:05.093Z,35.63
2018-05-08T09:26:05.061Z,36.21
2018-05-08T09:27:05.049Z,35.72
2018-05-08T09:28:05.079Z,36.40
2018-05-08T09:29:05.066Z,37.08
2018-05-08T09:30:05.125Z,34.76
2018-05-08T09:31:05.105Z,34.76
2018-05-08T09:32:05.128Z,35.14
2018-05-08T09:33:05.359Z,34.76
2018-05-08T09:34:05.162Z,33.70
2018-05-08T09:35:05.223Z,34.18
2018-05-08T09:36:05.166Z,34.26
2018-05-08T09:37:05.197Z,34.36
2018-05-08T09:38:05.202Z,34.95
2018-05-08T09:39:05.211Z,34.55
2018-05-08T09:40:05.304Z,33.87
2018-05-08T09:41:05.338Z,33.98
2018-05-08T09:42:05.262Z,33.87
2018-05-08T09:43:05.277Z,34.45
2018-05-08T09:44:05.299Z,35.05
2018-05-08T09:45:05.300Z,35.24
2018-05-08T09:46:05.386Z,35.44
2018-05-08T09:47:05.380Z,34.56
2018-05-08T09:48:05.356Z,33.80
2018-05-08T09:49:05.455Z,33.98
2018-05-08T09:50:05.417Z,33.98
2018-05-08T09:51:05.461Z,33.89
2018-05-08T09:52:05.452Z,34.56
2018-05-08T09:53:05.430Z,34.76
2018-05-08T09:54:05.483Z,34.56
2018-05-08T09:55:05.455Z,34.56
2018-05-08T09:56:05.476Z,34.95
2018-05-08T09:57:05.513Z,35.82
2018-05-08T09:58:05.541Z,35.44
2018-05-08T09:59:05.517Z,35.53
2018-05-08T10:00:05.570Z,35.82
2018-05-08T10:01:05.591Z,34.66
2018-05-08T10:02:05.606Z,34.86
2018-05-08T10:03:05.572Z,35.53
2018-05-08T10:04:05.639Z,36.01
2018-05-08T10:05:05.610Z,35.72
2018-05-08T10:06:05.618Z,35.24
2018-05-08T10:07:05.658Z,35.94
2018-05-08T10:08:05.678Z,35.16
2018-05-08T10:09:05.649Z,36.03
2018-05-08T10:10:05.678Z,35.53
2018-05-08T10:11:05.684Z,35.14
2018-05-08T10:12:05.708Z,35.92
2018-05-08T10:13:05.759Z,35.63
2018-05-08T10:14:05.725Z,35.34
2018-05-08T10:15:05.754Z,34.95
2018-05-08T10:16:05.811Z,34.87
2018-05-08T10:17:05.802Z,35.16
2018-05-08T10:18:05.791Z,35.45
2018-05-08T10:19:05.799Z,34.97
2018-05-08T10:20:05.809Z,34.87
2018-05-08T10:21:05.933Z,34.87
2018-05-08T10:22:05.839Z,35.55
2018-05-08T10:23:05.879Z,35.55
2018-05-08T10:24:05.883Z,35.94
2018-05-08T10:25:05.888Z,34.97
2018-05-08T10:26:05.938Z,34.87
2018-05-08T10:27:05.949Z,35.45
2018-05-08T10:28:05.945Z,35.45
2018-05-08T10:29:05.961Z,35.94
2018-05-08T10:30:05.969Z,34.68
2018-05-08T10:31:06.031Z,35.06
2018-05-08T10:32:06.101Z,34.00
2018-05-08T10:33:06.015Z,33.23
2018-05-08T10:34:06.028Z,33.62
2018-05-08T10:35:06.064Z,33.52
2018-05-08T10:36:06.111Z,33.72
2018-05-08T10:37:06.075Z,32.94
2018-05-08T10:38:06.084Z,33.33
2018-05-08T10:39:06.178Z,33.23
2018-05-08T10:40:06.156Z,32.46
2018-05-08T10:41:06.192Z,32.75
2018-05-08T10:42:06.147Z,32.65
2018-05-08T10:43:06.257Z,32.07
2018-05-08T10:44:06.189Z,32.46
2018-05-08T10:45:06.197Z,33.04
2018-05-08T10:46:06.244Z,33.04
2018-05-08T10:47:06.316Z,33.05
2018-05-08T10:48:06.235Z,32.38
2018-05-08T10:49:06.246Z,32.75
2018-05-08T10:50:06.270Z,32.09
2018-05-08T10:51:06.337Z,31.60
2018-05-08T10:52:06.304Z,31.22
2018-05-08T10:53:06.352Z,31.68
2018-05-08T10:54:06.352Z,30.91
2018-05-08T10:55:06.333Z,31.10
2018-05-08T10:56:06.368Z,31.01
2018-05-08T10:57:06.381Z,31.01
2018-05-08T10:58:06.443Z,31.10
2018-05-08T10:59:06.391Z,31.49
2018-05-08T11:00:06.429Z,30.91
2018-05-08T11:01:06.431Z,31.10
2018-05-08T11:02:06.457Z,31.01
2018-05-08T11:03:06.530Z,31.30
2018-05-08T11:04:06.523Z,31.30
2018-05-08T11:05:06.484Z,31.01
2018-05-08T11:06:06.531Z,31.10
2018-05-08T11:07:06.516Z,30.43
2018-05-08T11:08:06.600Z,30.33
2018-05-08T11:09:06.606Z,30.72
2018-05-08T11:10:06.569Z,31.01
2018-05-08T11:11:06.573Z,30.62
2018-05-08T11:12:06.598Z,30.72
2018-05-08T11:13:06.659Z,31.20
2018-05-08T11:14:06.629Z,30.91
2018-05-08T11:15:06.635Z,31.10
2018-05-08T11:16:06.703Z,31.10
2018-05-08T11:17:06.674Z,31.80
2018-05-08T11:18:06.700Z,30.82
2018-05-08T11:19:06.710Z,31.30
2018-05-08T11:20:06.716Z,31.22
2018-05-08T11:21:06.817Z,30.83
2018-05-08T11:22:06.749Z,31.31
2018-05-08T11:23:06.757Z,30.93
2018-05-08T11:24:06.785Z,31.31
2018-05-08T11:25:06.792Z,30.93
2018-05-08T11:26:06.849Z,30.93
2018-05-08T11:27:06.861Z,30.93
2018-05-08T11:28:06.874Z,30.73
2018-05-08T11:29:06.875Z,31.10
2018-05-08T11:30:06.895Z,31.51
2018-05-08T11:31:06.895Z,31.12
2018-05-08T11:32:06.984Z,31.59
2018-05-08T11:33:06.923Z,31.99
2018-05-08T11:34:06.926Z,31.60
2018-05-08T11:35:06.969Z,31.89
2018-05-08T11:36:06.961Z,31.80
2018-05-08T11:37:07.010Z,31.99
2018-05-08T11:38:07.033Z,31.80
2018-05-08T11:39:07.023Z,32.09
2018-05-08T11:40:07.010Z,31.89
2018-05-08T11:41:07.099Z,31.70
2018-05-08T11:42:07.068Z,31.80
2018-05-08T11:43:07.138Z,31.60
2018-05-08T11:44:07.087Z,31.51
2018-05-08T11:45:07.154Z,31.22
2018-05-08T11:46:07.135Z,32.09
2018-05-08T11:47:07.130Z,31.99
2018-05-08T11:48:07.153Z,32.38
2018-05-08T11:49:07.236Z,32.67
2018-05-08T11:50:07.221Z,32.57
2018-05-08T11:51:07.189Z,32.96
2018-05-08T11:52:07.239Z,33.25
2018-05-08T11:53:07.281Z,33.15
2018-05-08T11:54:07.257Z,33.34
2018-05-08T11:55:07.273Z,33.25
2018-05-08T11:56:07.269Z,33.54
2018-05-08T11:57:07.320Z,33.63
2018-05-08T11:58:07.302Z,33.83
2018-05-08T11:59:07.298Z,34.70
2018-05-08T12:00:07.368Z,34.02
2018-05-08T12:01:07.354Z,34.21
2018-05-08T12:02:07.359Z,33.73
2018-05-08T12:03:07.362Z,33.73
2018-05-08T12:04:07.376Z,34.02
2018-05-08T12:05:07.432Z,33.84
2018-05-08T12:06:07.429Z,33.75
2018-05-08T12:07:07.429Z,34.04
2018-05-08T12:08:07.449Z,33.92
2018-05-08T12:09:07.534Z,33.36
2018-05-08T12:10:07.542Z,33.17
2018-05-08T12:11:07.489Z,33.45
2018-05-08T12:12:07.513Z,33.84
2018-05-08T12:13:07.530Z,33.36
2018-05-08T12:14:07.545Z,33.75
2018-05-08T12:15:07.602Z,33.36
2018-05-08T12:16:07.569Z,33.26
2018-05-08T12:17:07.633Z,33.94
2018-05-08T12:18:07.599Z,34.04
2018-05-08T12:19:07.641Z,34.04
2018-05-08T12:20:07.631Z,33.65
2018-05-08T12:21:07.649Z,33.17
2018-05-08T12:22:07.694Z,33.65
2018-05-08T12:23:07.666Z,33.75
2018-05-08T12:24:07.737Z,34.04
2018-05-08T12:25:07.735Z,33.75
2018-05-08T12:26:07.713Z,33.94
2018-05-08T12:27:07.779Z,33.75
2018-05-08T12:28:07.794Z,34.71
2018-05-08T12:29:07.770Z,34.42
2018-05-08T12:30:07.824Z,34.71
2018-05-08T12:31:07.802Z,33.94
2018-05-08T12:32:07.811Z,33.84
2018-05-08T12:33:07.933Z,34.52
2018-05-08T12:34:07.845Z,34.23
2018-05-08T12:35:07.862Z,35.10
2018-05-08T12:36:07.870Z,34.42
2018-05-08T12:37:07.916Z,33.65
2018-05-08T12:38:07.934Z,33.65
2018-05-08T12:39:08.003Z,33.65
2018-05-08T12:40:07.922Z,33.75
2018-05-08T12:41:07.967Z,34.42
2018-05-08T12:42:08.044Z,34.52
2018-05-08T12:43:07.986Z,34.42
2018-05-08T12:44:08.031Z,33.84
2018-05-08T12:45:08.023Z,33.84
2018-05-08T12:46:08.025Z,34.42
2018-05-08T12:47:08.082Z,35.00
2018-05-08T12:48:08.057Z,34.44
2018-05-08T12:49:08.099Z,34.15
2018-05-08T12:50:08.188Z,34.25
2018-05-08T12:51:08.095Z,33.86
2018-05-08T12:52:08.121Z,34.44
2018-05-08T12:53:08.190Z,34.44
2018-05-08T12:54:08.141Z,34.54
2018-05-08T12:55:08.179Z,33.86
2018-05-08T12:56:08.215Z,33.76
2018-05-08T12:57:08.208Z,33.86
2018-05-08T12:58:08.252Z,32.99
2018-05-08T12:59:08.237Z,32.70
2018-05-08T13:00:08.238Z,32.60
2018-05-08T13:01:08.322Z,32.70